BERTHOUD PASS (METAR) 12490 ft         Display wind rose
     Date    Time     Temp MxTp MnTp DewP  RH Spd Dir Gst Pcp1
2019 Apr 23 11:00 am    28   30   21   19  69   5 110   -    -
2019 Apr 23 10:00 am    27   30   21   18  68   6 120   -    -
2019 Apr 23 09:00 am    27   30   21   16  63   6 120   -    -
2019 Apr 23 08:00 am    23   30   21   12  63   6 310   -    -
2019 Apr 23 07:00 am    23   30   21   12  63   6 320   -    -
2019 Apr 23 06:00 am    21   30   21   12  68   6 280   -    -
2019 Apr 23 05:00 am    23   30   21   12  63   5 260   -    -
2019 Apr 23 04:00 am    21   30   21   12  68   6 300   -    -
2019 Apr 23 03:00 am    23   30   23   12  63   6 290   -    -
2019 Apr 23 02:00 am    25   30   23   14  63   5 320   -    -
2019 Apr 23 01:00 am    23   30   23   14  68   7 320   -    -
2019 Apr 23 12:00 am    23   30   23   12  63   5 270   -    -
2019 Apr 22 11:00 pm    25   30   23   14  63  15 260   -    -
2019 Apr 22 10:00 pm    23   30   23   14  68   8 290   -    -
2019 Apr 22 09:00 pm    23   30   23   12  63   0   0   -    -
2019 Apr 22 08:00 pm    23   30   23   12  63   5 140   -    -
2019 Apr 22 07:00 pm    23   30   23   14  68   9 150  21    -
2019 Apr 22 06:00 pm    23   30   23   14  68  10 160   -    -
2019 Apr 22 05:00 pm    23   30   23   12  63   -   -   -    -
2019 Apr 22 04:00 pm    23   30   23   12  63   -   -   - 0.02
2019 Apr 22 03:00 pm    25   30   23   14  63   6 130  25    -
2019 Apr 22 02:00 pm    27   30   23   18  68  21 150  30    -
2019 Apr 22 01:00 pm    28   32   23   18  63  21 140  26    -
2019 Apr 22 12:00 pm    30   32   23   21  69  10 160  21    -
2019 Apr 22 11:00 am    28   32   23   19  69   9 140   -    -
2019 Apr 22 10:00 am    25   32   23   14  63   9 130   -    -
2019 Apr 22 09:00 am    23   32   23   12  63  17 160  22    -
2019 Apr 22 08:00 am    28   32   23   19  69   7 260   -    -
2019 Apr 22 07:00 am    27   32   23   18  68   3 190   -    -
2019 Apr 22 06:00 am    23   32   23   14  68   6 150   -    -
2019 Apr 22 05:00 am    23   32   23   14  68  10 180   -    -
2019 Apr 22 04:00 am    27   32   23   16  63   9 230   -    -
2019 Apr 22 03:00 am    27   32   23   16  63  16 250   -    -
2019 Apr 22 02:00 am    27   32   23   16  63  13 250   -    -
2019 Apr 22 01:00 am    27   32   23   16  63  16 250   -    -
2019 Apr 22 12:00 am    25   32   23   14  63   7 250   -    -
2019 Apr 21 11:00 pm    23   32   23   14  68   6 160   -    -
2019 Apr 21 10:00 pm    23   32   23   12  63  15 280  26    -
2019 Apr 21 09:00 pm    23   32   23   14  68  15 290  21    -
2019 Apr 21 08:00 pm    25   32   25   14  63   9 280   -    -
2019 Apr 21 07:00 pm    25   32   25   14  63  11 310  25    -
2019 Apr 21 06:00 pm    27   36   25   18  68  20 290  24    -
2019 Apr 21 05:00 pm    27   37   25   14  58  22 300  29    -
2019 Apr 21 04:00 pm    25   37   25   14  63  20 280  28    -
2019 Apr 21 03:00 pm    25   39   25   14  63  18 260  30    -
2019 Apr 21 02:00 pm    30   41   25   21  69  11 290   -    -
2019 Apr 21 01:00 pm    32   41   25   21  64   5 360   -    -
2019 Apr 21 12:00 pm    32   41   25   21  64   9 330  20    -
2019 Apr 21 11:00 am    32   41   25   23  69  13 310  17    -